sensor_id;sensor_type;location;lat;lon;timestamp;P1;P2;P0
62599;PMS7003;48671;48.922;2.346;2024-02-15T00:00:09;14.00;11.75;8.75
62599;PMS7003;48671;48.922;2.346;2024-02-15T00:02:35;16.75;13.25;8.75
62599;PMS7003;48671;48.922;2.346;2024-02-15T00:05:00;18.00;12.25;9.00
62599;PMS7003;48671;48.922;2.346;2024-02-15T00:07:26;16.00;10.25;8.50
62599;PMS7003;48671;48.922;2.346;2024-02-15T00:09:51;15.50;12.75;9.00
62599;PMS7003;48671;48.922;2.346;2024-02-15T00:12:17;18.50;12.25;9.00
62599;PMS7003;48671;48.922;2.346;2024-02-15T00:14:43;17.75;9.00;6.25
62599;PMS7003;48671;48.922;2.346;2024-02-15T00:17:09;16.00;13.75;8.25
62599;PMS7003;48671;48.922;2.346;2024-02-15T00:19:34;10.00;8.75;4.75
62599;PMS7003;48671;48.922;2.346;2024-02-15T00:21:59;12.67;11.33;8.67
62599;PMS7003;48671;48.922;2.346;2024-02-15T00:24:24;13.25;10.00;7.75
62599;PMS7003;48671;48.922;2.346;2024-02-15T00:26:50;17.00;14.00;9.00
62599;PMS7003;48671;48.922;2.346;2024-02-15T00:29:15;11.00;11.00;6.00
62599;PMS7003;48671;48.922;2.346;2024-02-15T00:31:42;9.25;8.50;7.00
62599;PMS7003;48671;48.922;2.346;2024-02-15T00:34:08;14.25;9.75;6.75
62599;PMS7003;48671;48.922;2.346;2024-02-15T00:36:33;16.00;10.25;6.25
62599;PMS7003;48671;48.922;2.346;2024-02-15T00:38:58;8.00;7.50;5.00
62599;PMS7003;48671;48.922;2.346;2024-02-15T00:41:24;10.00;9.00;6.25
62599;PMS7003;48671;48.922;2.346;2024-02-15T00:43:50;13.75;10.75;7.50
62599;PMS7003;48671;48.922;2.346;2024-02-15T00:46:15;7.75;7.00;5.00
62599;PMS7003;48671;48.922;2.346;2024-02-15T00:48:41;8.00;7.50;6.00
62599;PMS7003;48671;48.922;2.346;2024-02-15T00:51:07;10.00;6.75;5.00
62599;PMS7003;48671;48.922;2.346;2024-02-15T00:53:32;11.00;8.00;4.25
62599;PMS7003;48671;48.922;2.346;2024-02-15T00:55:58;8.00;7.25;4.50
62599;PMS7003;48671;48.922;2.346;2024-02-15T00:58:23;11.00;8.00;4.00
62599;PMS7003;48671;48.922;2.346;2024-02-15T01:00:49;8.75;7.00;4.00
62599;PMS7003;48671;48.922;2.346;2024-02-15T01:03:15;11.25;8.00;4.00
62599;PMS7003;48671;48.922;2.346;2024-02-15T01:05:41;6.00;6.00;4.25
62599;PMS7003;48671;48.922;2.346;2024-02-15T01:08:06;10.33;7.00;4.33
62599;PMS7003;48671;48.922;2.346;2024-02-15T01:10:33;6.25;6.00;4.00
62599;PMS7003;48671;48.922;2.346;2024-02-15T01:12:59;8.25;4.75;3.00
62599;PMS7003;48671;48.922;2.346;2024-02-15T01:15:25;9.00;4.50;3.50
62599;PMS7003;48671;48.922;2.346;2024-02-15T01:17:50;8.00;7.00;4.00
62599;PMS7003;48671;48.922;2.346;2024-02-15T01:20:15;8.00;7.25;3.75
62599;PMS7003;48671;48.922;2.346;2024-02-15T01:22:40;8.33;6.33;4.00
62599;PMS7003;48671;48.922;2.346;2024-02-15T01:25:06;9.25;4.00;3.00
62599;PMS7003;48671;48.922;2.346;2024-02-15T01:27:32;6.50;5.00;4.00
62599;PMS7003;48671;48.922;2.346;2024-02-15T01:29:57;7.50;5.00;3.00
62599;PMS7003;48671;48.922;2.346;2024-02-15T01:32:23;5.00;5.00;3.00
62599;PMS7003;48671;48.922;2.346;2024-02-15T01:34:48;5.50;3.00;2.75
62599;PMS7003;48671;48.922;2.346;2024-02-15T01:37:16;5.00;5.00;4.00
62599;PMS7003;48671;48.922;2.346;2024-02-15T01:39:41;6.50;4.00;3.00
62599;PMS7003;48671;48.922;2.346;2024-02-15T01:42:07;5.50;4.50;3.00
62599;PMS7003;48671;48.922;2.346;2024-02-15T01:44:32;5.00;5.00;4.00
62599;PMS7003;48671;48.922;2.346;2024-02-15T01:46:57;7.33;4.00;3.00
62599;PMS7003;48671;48.922;2.346;2024-02-15T01:49:23;4.75;4.75;4.00
62599;PMS7003;48671;48.922;2.346;2024-02-15T01:51:50;5.00;4.50;3.75
62599;PMS7003;48671;48.922;2.346;2024-02-15T01:54:18;4.75;4.75;4.00
62599;PMS7003;48671;48.922;2.346;2024-02-15T01:56:44;7.00;4.00;3.00
62599;PMS7003;48671;48.922;2.346;2024-02-15T01:59:10;8.00;5.50;3.00
62599;PMS7003;48671;48.922;2.346;2024-02-15T02:01:40;5.00;5.00;3.50
62599;PMS7003;48671;48.922;2.346;2024-02-15T02:04:06;9.00;5.00;3.00
62599;PMS7003;48671;48.922;2.346;2024-02-15T02:06:31;5.25;4.25;3.00
62599;PMS7003;48671;48.922;2.346;2024-02-15T02:08:57;6.00;4.00;3.00
62599;PMS7003;48671;48.922;2.346;2024-02-15T02:11:23;8.00;7.00;4.00
62599;PMS7003;48671;48.922;2.346;2024-02-15T02:13:49;2.25;1.00;1.00
62599;PMS7003;48671;48.922;2.346;2024-02-15T02:16:26;5.00;5.00;3.00
62599;PMS7003;48671;48.922;2.346;2024-02-15T02:18:52;8.75;4.00;3.00
62599;PMS7003;48671;48.922;2.346;2024-02-15T02:21:19;8.00;5.50;4.00
62599;PMS7003;48671;48.922;2.346;2024-02-15T02:23:45;9.75;5.50;4.00
62599;PMS7003;48671;48.922;2.346;2024-02-15T02:26:17;6.75;5.50;3.00
62599;PMS7003;48671;48.922;2.346;2024-02-15T02:28:46;7.00;5.00;3.50
62599;PMS7003;48671;48.922;2.346;2024-02-15T02:31:12;8.75;6.75;4.00
62599;PMS7003;48671;48.922;2.346;2024-02-15T02:33:37;8.00;4.00;3.00
62599;PMS7003;48671;48.922;2.346;2024-02-15T02:36:02;4.00;4.00;3.00
62599;PMS7003;48671;48.922;2.346;2024-02-15T02:38:28;9.00;7.75;4.00
62599;PMS7003;48671;48.922;2.346;2024-02-15T02:40:53;8.67;8.00;5.00
62599;PMS7003;48671;48.922;2.346;2024-02-15T02:43:19;15.50;9.25;7.00
62599;PMS7003;48671;48.922;2.346;2024-02-15T02:45:44;13.67;9.67;7.00
62599;PMS7003;48671;48.922;2.346;2024-02-15T02:48:10;8.00;6.75;5.00
62599;PMS7003;48671;48.922;2.346;2024-02-15T02:50:36;9.00;5.50;4.00
62599;PMS7003;48671;48.922;2.346;2024-02-15T02:53:02;8.00;5.00;4.00
62599;PMS7003;48671;48.922;2.346;2024-02-15T02:55:28;6.50;4.75;2.50
62599;PMS7003;48671;48.922;2.346;2024-02-15T02:57:53;5.00;3.00;2.50
62599;PMS7003;48671;48.922;2.346;2024-02-15T03:00:20;4.75;3.00;2.75
62599;PMS7003;48671;48.922;2.346;2024-02-15T03:02:46;3.75;3.75;2.50
62599;PMS7003;48671;48.922;2.346;2024-02-15T03:05:12;6.50;5.00;3.25
62599;PMS7003;48671;48.922;2.346;2024-02-15T03:07:41;7.25;4.00;3.00
62599;PMS7003;48671;48.922;2.346;2024-02-15T03:10:07;8.25;5.00;4.00
62599;PMS7003;48671;48.922;2.346;2024-02-15T03:12:36;6.50;4.50;3.00
62599;PMS7003;48671;48.922;2.346;2024-02-15T03:15:05;5.00;5.00;3.00
62599;PMS7003;48671;48.922;2.346;2024-02-15T03:17:38;8.50;7.00;3.00
62599;PMS7003;48671;48.922;2.346;2024-02-15T03:20:05;5.00;4.00;3.00
62599;PMS7003;48671;48.922;2.346;2024-02-15T03:22:50;5.00;5.00;4.00
62599;PMS7003;48671;48.922;2.346;2024-02-15T03:25:17;3.50;3.50;3.00
62599;PMS7003;48671;48.922;2.346;2024-02-15T03:27:42;10.25;7.00;4.00
62599;PMS7003;48671;48.922;2.346;2024-02-15T03:30:08;4.50;4.50;3.50
62599;PMS7003;48671;48.922;2.346;2024-02-15T03:32:33;5.75;4.00;3.00
62599;PMS7003;48671;48.922;2.346;2024-02-15T03:34:59;6.33;4.00;3.00
62599;PMS7003;48671;48.922;2.346;2024-02-15T03:37:26;9.00;6.25;4.00
62599;PMS7003;48671;48.922;2.346;2024-02-15T03:39:51;4.75;4.00;3.50
62599;PMS7003;48671;48.922;2.346;2024-02-15T03:42:16;4.00;3.00;3.00
62599;PMS7003;48671;48.922;2.346;2024-02-15T03:44:42;4.00;4.00;3.00
62599;PMS7003;48671;48.922;2.346;2024-02-15T03:47:07;4.33;4.33;2.33
62599;PMS7003;48671;48.922;2.346;2024-02-15T03:49:32;8.00;4.33;3.00
62599;PMS7003;48671;48.922;2.346;2024-02-15T03:51:58;5.00;5.00;4.00
62599;PMS7003;48671;48.922;2.346;2024-02-15T03:54:26;8.50;4.50;4.00
62599;PMS7003;48671;48.922;2.346;2024-02-15T03:56:51;5.75;3.50;3.25
62599;PMS7003;48671;48.922;2.346;2024-02-15T03:59:20;5.50;4.75;3.00
62599;PMS7003;48671;48.922;2.346;2024-02-15T04:01:54;7.00;5.00;4.00
62599;PMS7003;48671;48.922;2.346;2024-02-15T04:04:20;3.00;3.00;2.00
62599;PMS7003;48671;48.922;2.346;2024-02-15T04:06:46;4.25;4.25;3.00
62599;PMS7003;48671;48.922;2.346;2024-02-15T04:09:12;4.00;4.00;3.00
62599;PMS7003;48671;48.922;2.346;2024-02-15T04:11:38;3.67;3.67;3.00
62599;PMS7003;48671;48.922;2.346;2024-02-15T04:14:03;6.33;5.67;4.00
62599;PMS7003;48671;48.922;2.346;2024-02-15T04:16:28;8.00;4.00;3.00
62599;PMS7003;48671;48.922;2.346;2024-02-15T04:18:55;4.75;4.75;3.50
62599;PMS7003;48671;48.922;2.346;2024-02-15T04:21:22;8.00;6.00;4.00
62599;PMS7003;48671;48.922;2.346;2024-02-15T04:23:48;5.50;4.00;3.00
62599;PMS7003;48671;48.922;2.346;2024-02-15T04:26:13;10.25;4.00;3.00
62599;PMS7003;48671;48.922;2.346;2024-02-15T04:28:39;3.75;3.75;3.00
62599;PMS7003;48671;48.922;2.346;2024-02-15T04:31:05;8.00;6.25;2.50
62599;PMS7003;48671;48.922;2.346;2024-02-15T04:33:33;5.00;3.00;2.75
62599;PMS7003;48671;48.922;2.346;2024-02-15T04:35:59;7.25;5.00;2.50
62599;PMS7003;48671;48.922;2.346;2024-02-15T04:38:27;6.75;4.25;3.00
62599;PMS7003;48671;48.922;2.346;2024-02-15T04:40:52;6.00;4.00;3.50
62599;PMS7003;48671;48.922;2.346;2024-02-15T04:43:18;2.25;2.25;2.00
62599;PMS7003;48671;48.922;2.346;2024-02-15T04:45:44;7.75;5.00;3.50
62599;PMS7003;48671;48.922;2.346;2024-02-15T04:48:10;6.50;4.50;3.25
62599;PMS7003;48671;48.922;2.346;2024-02-15T04:50:38;5.25;5.25;3.75
62599;PMS7003;48671;48.922;2.346;2024-02-15T04:53:04;7.00;4.50;3.75
62599;PMS7003;48671;48.922;2.346;2024-02-15T04:55:30;8.00;4.50;2.25
62599;PMS7003;48671;48.922;2.346;2024-02-15T04:57:56;5.00;5.00;3.00
62599;PMS7003;48671;48.922;2.346;2024-02-15T05:00:22;10.25;8.75;7.25
62599;PMS7003;48671;48.922;2.346;2024-02-15T05:02:50;5.00;4.00;3.00
62599;PMS7003;48671;48.922;2.346;2024-02-15T05:05:15;4.50;3.00;2.75
62599;PMS7003;48671;48.922;2.346;2024-02-15T05:07:41;8.00;5.75;3.25
62599;PMS7003;48671;48.922;2.346;2024-02-15T05:10:08;5.25;5.25;3.00
62599;PMS7003;48671;48.922;2.346;2024-02-15T05:12:33;8.25;7.00;4.00
62599;PMS7003;48671;48.922;2.346;2024-02-15T05:14:59;4.00;4.00;2.75
62599;PMS7003;48671;48.922;2.346;2024-02-15T05:17:25;8.00;6.00;4.75
62599;PMS7003;48671;48.922;2.346;2024-02-15T05:19:50;8.00;7.00;4.25
62599;PMS7003;48671;48.922;2.346;2024-02-15T05:22:15;4.25;4.25;3.00
62599;PMS7003;48671;48.922;2.346;2024-02-15T05:24:41;5.00;4.00;4.00
62599;PMS7003;48671;48.922;2.346;2024-02-15T05:27:06;5.50;4.00;2.00
62599;PMS7003;48671;48.922;2.346;2024-02-15T05:29:31;5.50;5.50;3.25
62599;PMS7003;48671;48.922;2.346;2024-02-15T05:32:01;5.25;4.00;3.00
62599;PMS7003;48671;48.922;2.346;2024-02-15T05:34:26;3.25;3.00;2.75
62599;PMS7003;48671;48.922;2.346;2024-02-15T05:36:52;6.25;4.00;2.50
62599;PMS7003;48671;48.922;2.346;2024-02-15T05:39:17;7.00;5.00;3.00
62599;PMS7003;48671;48.922;2.346;2024-02-15T05:41:46;9.50;7.50;4.00
62599;PMS7003;48671;48.922;2.346;2024-02-15T05:44:11;4.75;4.75;3.50
62599;PMS7003;48671;48.922;2.346;2024-02-15T05:46:38;7.00;5.25;3.00
62599;PMS7003;48671;48.922;2.346;2024-02-15T05:49:05;7.75;7.00;4.00
62599;PMS7003;48671;48.922;2.346;2024-02-15T05:51:30;4.50;4.50;3.50
62599;PMS7003;48671;48.922;2.346;2024-02-15T05:53:56;8.25;7.00;4.00
62599;PMS7003;48671;48.922;2.346;2024-02-15T05:56:24;7.25;5.75;4.00
62599;PMS7003;48671;48.922;2.346;2024-02-15T05:58:51;3.25;3.00;3.00
62599;PMS7003;48671;48.922;2.346;2024-02-15T06:01:16;8.00;7.00;5.00
62599;PMS7003;48671;48.922;2.346;2024-02-15T06:03:42;3.50;3.50;2.50
62599;PMS7003;48671;48.922;2.346;2024-02-15T06:06:09;8.00;6.75;2.75
62599;PMS7003;48671;48.922;2.346;2024-02-15T06:08:36;7.00;5.50;3.00
62599;PMS7003;48671;48.922;2.346;2024-02-15T06:11:03;6.50;3.75;3.00
62599;PMS7003;48671;48.922;2.346;2024-02-15T06:13:30;4.75;4.00;3.00
62599;PMS7003;48671;48.922;2.346;2024-02-15T06:15:56;8.25;4.00;3.25
62599;PMS7003;48671;48.922;2.346;2024-02-15T06:18:22;3.00;3.00;3.00
62599;PMS7003;48671;48.922;2.346;2024-02-15T06:20:54;4.50;4.00;2.50
62599;PMS7003;48671;48.922;2.346;2024-02-15T06:23:22;12.25;7.00;5.00
62599;PMS7003;48671;48.922;2.346;2024-02-15T06:25:50;8.25;5.25;3.00
62599;PMS7003;48671;48.922;2.346;2024-02-15T06:28:18;9.75;6.50;4.75
62599;PMS7003;48671;48.922;2.346;2024-02-15T06:31:02;7.50;5.75;3.50
62599;PMS7003;48671;48.922;2.346;2024-02-15T06:33:50;7.00;6.00;4.00
62599;PMS7003;48671;48.922;2.346;2024-02-15T06:36:38;4.75;3.25;2.00
62599;PMS7003;48671;48.922;2.346;2024-02-15T06:39:32;5.00;5.00;3.00
62599;PMS7003;48671;48.922;2.346;2024-02-15T06:42:14;7.50;4.00;3.00
62599;PMS7003;48671;48.922;2.346;2024-02-15T06:44:44;7.00;4.25;2.75
62599;PMS7003;48671;48.922;2.346;2024-02-15T06:47:10;8.50;7.00;4.00
62599;PMS7003;48671;48.922;2.346;2024-02-15T06:49:39;7.00;4.00;3.00
62599;PMS7003;48671;48.922;2.346;2024-02-15T06:52:05;11.00;5.50;3.75
62599;PMS7003;48671;48.922;2.346;2024-02-15T06:54:32;8.00;6.00;3.50
62599;PMS7003;48671;48.922;2.346;2024-02-15T06:56:58;4.50;4.50;2.50
62599;PMS7003;48671;48.922;2.346;2024-02-15T06:59:23;7.25;6.00;4.00
62599;PMS7003;48671;48.922;2.346;2024-02-15T07:01:49;7.50;4.00;3.50
62599;PMS7003;48671;48.922;2.346;2024-02-15T07:04:17;7.75;6.50;3.50
62599;PMS7003;48671;48.922;2.346;2024-02-15T07:06:42;8.00;5.25;3.50
62599;PMS7003;48671;48.922;2.346;2024-02-15T07:09:11;8.75;7.25;4.50
62599;PMS7003;48671;48.922;2.346;2024-02-15T07:11:36;10.00;6.25;4.00
62599;PMS7003;48671;48.922;2.346;2024-02-15T07:14:02;9.50;7.50;4.75
62599;PMS7003;48671;48.922;2.346;2024-02-15T07:16:29;8.00;7.00;5.75
62599;PMS7003;48671;48.922;2.346;2024-02-15T07:18:55;8.50;8.50;6.50
62599;PMS7003;48671;48.922;2.346;2024-02-15T07:21:20;10.00;8.50;4.75
62599;PMS7003;48671;48.922;2.346;2024-02-15T07:23:50;8.50;8.50;5.25
62599;PMS7003;48671;48.922;2.346;2024-02-15T07:26:16;13.00;8.00;6.25
62599;PMS7003;48671;48.922;2.346;2024-02-15T07:28:41;12.00;7.25;3.50
62599;PMS7003;48671;48.922;2.346;2024-02-15T07:31:07;4.00;4.00;3.00
62599;PMS7003;48671;48.922;2.346;2024-02-15T07:33:32;8.00;8.00;4.00
62599;PMS7003;48671;48.922;2.346;2024-02-15T07:36:00;3.25;3.00;2.50
62599;PMS7003;48671;48.922;2.346;2024-02-15T07:38:25;7.50;6.00;4.00
62599;PMS7003;48671;48.922;2.346;2024-02-15T07:40:51;5.00;4.67;4.00
62599;PMS7003;48671;48.922;2.346;2024-02-15T07:43:16;11.00;7.25;4.75
62599;PMS7003;48671;48.922;2.346;2024-02-15T07:45:42;14.00;8.00;4.25
62599;PMS7003;48671;48.922;2.346;2024-02-15T07:48:07;9.00;7.00;5.00
62599;PMS7003;48671;48.922;2.346;2024-02-15T07:50:33;8.75;6.25;5.00
62599;PMS7003;48671;48.922;2.346;2024-02-15T07:52:58;12.00;8.75;5.75
62599;PMS7003;48671;48.922;2.346;2024-02-15T07:55:24;10.75;9.00;8.00
62599;PMS7003;48671;48.922;2.346;2024-02-15T07:57:50;10.75;9.50;7.00
62599;PMS7003;48671;48.922;2.346;2024-02-15T08:00:18;13.50;10.25;7.00
62599;PMS7003;48671;48.922;2.346;2024-02-15T08:02:44;11.00;8.00;4.25
62599;PMS7003;48671;48.922;2.346;2024-02-15T08:05:10;9.00;6.50;5.25
62599;PMS7003;48671;48.922;2.346;2024-02-15T08:07:45;16.25;8.75;6.00
62599;PMS7003;48671;48.922;2.346;2024-02-15T08:10:12;10.00;8.25;7.00
62599;PMS7003;48671;48.922;2.346;2024-02-15T08:12:45;8.75;8.75;6.25
62599;PMS7003;48671;48.922;2.346;2024-02-15T08:15:11;5.00;5.00;4.00
62599;PMS7003;48671;48.922;2.346;2024-02-15T08:17:44;10.50;7.50;5.50
62599;PMS7003;48671;48.922;2.346;2024-02-15T08:20:13;18.75;17.50;13.25
62599;PMS7003;48671;48.922;2.346;2024-02-15T08:22:40;23.25;21.75;16.25
62599;PMS7003;48671;48.922;2.346;2024-02-15T08:25:09;13.50;11.50;9.00
62599;PMS7003;48671;48.922;2.346;2024-02-15T08:27:47;10.50;9.00;7.00
62599;PMS7003;48671;48.922;2.346;2024-02-15T08:30:14;9.75;6.25;4.50
62599;PMS7003;48671;48.922;2.346;2024-02-15T08:32:40;10.50;5.50;4.00
62599;PMS7003;48671;48.922;2.346;2024-02-15T08:35:10;9.25;7.50;4.50
62599;PMS7003;48671;48.922;2.346;2024-02-15T08:37:37;7.50;4.25;4.00
62599;PMS7003;48671;48.922;2.346;2024-02-15T08:40:05;7.00;5.25;5.00
62599;PMS7003;48671;48.922;2.346;2024-02-15T08:42:39;11.50;6.00;5.00
62599;PMS7003;48671;48.922;2.346;2024-02-15T08:45:08;8.00;6.00;4.75
62599;PMS7003;48671;48.922;2.346;2024-02-15T08:47:37;9.00;6.00;5.00
62599;PMS7003;48671;48.922;2.346;2024-02-15T08:50:04;8.00;6.25;4.75
62599;PMS7003;48671;48.922;2.346;2024-02-15T08:52:34;5.75;5.75;4.50
62599;PMS7003;48671;48.922;2.346;2024-02-15T08:55:02;9.25;7.75;4.00
62599;PMS7003;48671;48.922;2.346;2024-02-15T08:57:35;7.00;7.00;5.00
62599;PMS7003;48671;48.922;2.346;2024-02-15T09:00:04;7.00;5.75;3.00
62599;PMS7003;48671;48.922;2.346;2024-02-15T09:02:38;8.00;6.00;4.00
62599;PMS7003;48671;48.922;2.346;2024-02-15T09:05:03;7.25;7.25;4.50
62599;PMS7003;48671;48.922;2.346;2024-02-15T09:07:29;9.50;8.00;5.00
62599;PMS7003;48671;48.922;2.346;2024-02-15T09:09:55;7.00;5.00;4.50
62599;PMS7003;48671;48.922;2.346;2024-02-15T09:12:20;8.00;6.75;5.00
62599;PMS7003;48671;48.922;2.346;2024-02-15T09:14:46;4.75;4.75;4.00
62599;PMS7003;48671;48.922;2.346;2024-02-15T09:17:13;7.75;5.75;4.25
62599;PMS7003;48671;48.922;2.346;2024-02-15T09:19:39;6.25;6.25;4.00
62599;PMS7003;48671;48.922;2.346;2024-02-15T09:22:04;9.33;8.00;5.00
62599;PMS7003;48671;48.922;2.346;2024-02-15T09:24:30;7.50;7.50;5.00
62599;PMS7003;48671;48.922;2.346;2024-02-15T09:26:58;8.25;6.00;5.00
62599;PMS7003;48671;48.922;2.346;2024-02-15T09:29:23;5.75;5.75;4.00
62599;PMS7003;48671;48.922;2.346;2024-02-15T09:31:49;9.50;5.50;4.00
62599;PMS7003;48671;48.922;2.346;2024-02-15T09:34:14;9.25;7.75;5.00
62599;PMS7003;48671;48.922;2.346;2024-02-15T09:36:40;10.50;6.50;5.00
62599;PMS7003;48671;48.922;2.346;2024-02-15T09:39:05;7.50;5.75;4.75
62599;PMS7003;48671;48.922;2.346;2024-02-15T09:41:31;7.75;6.25;4.25
62599;PMS7003;48671;48.922;2.346;2024-02-15T09:43:57;9.50;4.75;4.00
62599;PMS7003;48671;48.922;2.346;2024-02-15T09:46:22;10.00;8.00;5.75
62599;PMS7003;48671;48.922;2.346;2024-02-15T09:48:49;6.75;6.00;4.00
62599;PMS7003;48671;48.922;2.346;2024-02-15T09:51:16;5.00;5.00;4.00
62599;PMS7003;48671;48.922;2.346;2024-02-15T09:53:46;6.50;4.75;4.00
62599;PMS7003;48671;48.922;2.346;2024-02-15T09:56:12;9.25;9.00;5.25
62599;PMS7003;48671;48.922;2.346;2024-02-15T09:58:40;11.25;9.75;5.75
62599;PMS7003;48671;48.922;2.346;2024-02-15T10:01:06;9.25;6.00;4.75
62599;PMS7003;48671;48.922;2.346;2024-02-15T10:03:38;5.75;4.00;3.00
62599;PMS7003;48671;48.922;2.346;2024-02-15T10:06:07;9.00;5.00;3.00
62599;PMS7003;48671;48.922;2.346;2024-02-15T10:08:33;5.25;4.00;3.50
62599;PMS7003;48671;48.922;2.346;2024-02-15T10:11:05;5.25;5.25;5.00
62599;PMS7003;48671;48.922;2.346;2024-02-15T10:13:33;12.50;6.75;5.00
62599;PMS7003;48671;48.922;2.346;2024-02-15T10:15:59;10.00;6.75;6.00
62599;PMS7003;48671;48.922;2.346;2024-02-15T10:18:47;8.25;5.25;4.00
62599;PMS7003;48671;48.922;2.346;2024-02-15T10:21:27;6.50;4.00;3.00
62599;PMS7003;48671;48.922;2.346;2024-02-15T10:24:08;9.50;5.00;4.00
62599;PMS7003;48671;48.922;2.346;2024-02-15T10:26:34;4.50;3.25;2.75
62599;PMS7003;48671;48.922;2.346;2024-02-15T10:29:10;5.25;5.25;4.00
62599;PMS7003;48671;48.922;2.346;2024-02-15T10:31:40;7.25;7.00;5.00
62599;PMS7003;48671;48.922;2.346;2024-02-15T10:34:18;5.00;5.00;3.00
62599;PMS7003;48671;48.922;2.346;2024-02-15T10:36:47;5.00;5.00;3.00
62599;PMS7003;48671;48.922;2.346;2024-02-15T10:39:12;6.25;6.00;4.50
62599;PMS7003;48671;48.922;2.346;2024-02-15T10:41:51;7.50;6.25;4.25
62599;PMS7003;48671;48.922;2.346;2024-02-15T10:44:23;4.00;3.00;2.25
62599;PMS7003;48671;48.922;2.346;2024-02-15T10:46:50;9.50;5.00;3.50
62599;PMS7003;48671;48.922;2.346;2024-02-15T10:49:20;6.75;6.00;5.00
62599;PMS7003;48671;48.922;2.346;2024-02-15T10:52:04;9.25;6.50;5.00
62599;PMS7003;48671;48.922;2.346;2024-02-15T10:57:03;6.00;6.00;4.00
62599;PMS7003;48671;48.922;2.346;2024-02-15T10:59:31;6.75;5.00;3.75
62599;PMS7003;48671;48.922;2.346;2024-02-15T11:02:01;4.75;4.75;3.50
62599;PMS7003;48671;48.922;2.346;2024-02-15T11:04:47;10.50;6.00;5.00
62599;PMS7003;48671;48.922;2.346;2024-02-15T11:07:22;8.00;6.00;4.25
62599;PMS7003;48671;48.922;2.346;2024-02-15T11:09:49;9.75;5.00;4.00
62599;PMS7003;48671;48.922;2.346;2024-02-15T11:12:16;6.00;5.50;3.75
62599;PMS7003;48671;48.922;2.346;2024-02-15T11:14:44;5.75;5.00;4.00
62599;PMS7003;48671;48.922;2.346;2024-02-15T11:17:09;11.00;8.50;5.50
62599;PMS7003;48671;48.922;2.346;2024-02-15T11:22:16;5.00;5.00;4.00
62599;PMS7003;48671;48.922;2.346;2024-02-15T11:24:54;7.00;4.75;4.00
62599;PMS7003;48671;48.922;2.346;2024-02-15T11:27:26;11.50;8.00;6.75
62599;PMS7003;48671;48.922;2.346;2024-02-15T11:29:56;4.75;4.50;3.00
62599;PMS7003;48671;48.922;2.346;2024-02-15T11:45:20;6.25;6.25;4.00
62599;PMS7003;48671;48.922;2.346;2024-02-15T11:47:49;10.75;5.00;4.00
62599;PMS7003;48671;48.922;2.346;2024-02-15T11:50:16;11.00;4.75;3.75
62599;PMS7003;48671;48.922;2.346;2024-02-15T11:52:43;11.00;7.00;4.00
62599;PMS7003;48671;48.922;2.346;2024-02-15T11:55:10;6.00;6.00;5.00
62599;PMS7003;48671;48.922;2.346;2024-02-15T11:57:38;7.75;7.00;5.00
62599;PMS7003;48671;48.922;2.346;2024-02-15T12:00:22;6.75;5.00;3.50
62599;PMS7003;48671;48.922;2.346;2024-02-15T12:03:07;9.25;8.00;5.75
62599;PMS7003;48671;48.922;2.346;2024-02-15T12:05:51;6.25;5.75;5.00
62599;PMS7003;48671;48.922;2.346;2024-02-15T12:08:35;12.75;6.50;4.75
62599;PMS7003;48671;48.922;2.346;2024-02-15T12:11:19;10.75;6.25;4.00
62599;PMS7003;48671;48.922;2.346;2024-02-15T12:14:03;7.75;5.00;4.00
62599;PMS7003;48671;48.922;2.346;2024-02-15T12:16:57;13.00;10.75;6.75
62599;PMS7003;48671;48.922;2.346;2024-02-15T12:19:42;8.50;7.00;4.25
62599;PMS7003;48671;48.922;2.346;2024-02-15T12:22:08;8.25;7.50;4.75
62599;PMS7003;48671;48.922;2.346;2024-02-15T12:24:34;6.00;6.00;4.25
62599;PMS7003;48671;48.922;2.346;2024-02-15T12:27:00;7.00;6.75;4.75
62599;PMS7003;48671;48.922;2.346;2024-02-15T12:29:28;4.75;4.75;3.00
62599;PMS7003;48671;48.922;2.346;2024-02-15T12:31:54;10.50;5.25;3.25
62599;PMS7003;48671;48.922;2.346;2024-02-15T12:34:20;10.00;6.00;4.00
62599;PMS7003;48671;48.922;2.346;2024-02-15T12:36:45;7.75;5.25;4.00
62599;PMS7003;48671;48.922;2.346;2024-02-15T12:39:14;7.75;6.00;5.00
62599;PMS7003;48671;48.922;2.346;2024-02-15T12:41:48;8.50;6.75;5.00
62599;PMS7003;48671;48.922;2.346;2024-02-15T12:44:17;7.00;6.00;4.00
62599;PMS7003;48671;48.922;2.346;2024-02-15T12:46:45;4.25;4.25;3.75
62599;PMS7003;48671;48.922;2.346;2024-02-15T12:51:50;7.50;6.00;5.00
62599;PMS7003;48671;48.922;2.346;2024-02-15T12:54:23;7.25;5.00;4.00
62599;PMS7003;48671;48.922;2.346;2024-02-15T12:56:49;8.00;7.75;6.00
62599;PMS7003;48671;48.922;2.346;2024-02-15T12:59:17;4.50;3.25;2.50
62599;PMS7003;48671;48.922;2.346;2024-02-15T13:01:44;6.00;4.00;3.25
62599;PMS7003;48671;48.922;2.346;2024-02-15T13:04:20;9.75;7.00;4.00
62599;PMS7003;48671;48.922;2.346;2024-02-15T13:06:48;5.75;5.25;4.00
62599;PMS7003;48671;48.922;2.346;2024-02-15T13:09:14;4.50;4.50;2.75
62599;PMS7003;48671;48.922;2.346;2024-02-15T13:11:39;8.75;5.75;4.00
62599;PMS7003;48671;48.922;2.346;2024-02-15T13:14:05;8.00;5.50;3.50
62599;PMS7003;48671;48.922;2.346;2024-02-15T13:16:30;4.75;4.75;3.50
62599;PMS7003;48671;48.922;2.346;2024-02-15T13:18:56;3.25;3.25;1.00
62599;PMS7003;48671;48.922;2.346;2024-02-15T13:21:23;7.00;5.00;4.00
62599;PMS7003;48671;48.922;2.346;2024-02-15T13:23:52;7.00;5.75;4.00
62599;PMS7003;48671;48.922;2.346;2024-02-15T13:26:18;5.00;3.00;3.00
62599;PMS7003;48671;48.922;2.346;2024-02-15T13:28:45;8.00;5.50;4.00
62599;PMS7003;48671;48.922;2.346;2024-02-15T13:31:10;6.00;4.50;3.00
62599;PMS7003;48671;48.922;2.346;2024-02-15T13:33:37;7.25;5.00;4.00
62599;PMS7003;48671;48.922;2.346;2024-02-15T13:36:03;6.00;4.00;3.00
62599;PMS7003;48671;48.922;2.346;2024-02-15T13:38:31;8.25;5.75;3.00
62599;PMS7003;48671;48.922;2.346;2024-02-15T13:40:57;8.75;4.25;4.00
62599;PMS7003;48671;48.922;2.346;2024-02-15T13:43:24;4.25;4.00;3.50
62599;PMS7003;48671;48.922;2.346;2024-02-15T13:45:50;5.50;5.00;3.00
62599;PMS7003;48671;48.922;2.346;2024-02-15T13:48:16;8.00;4.00;3.00
62599;PMS7003;48671;48.922;2.346;2024-02-15T13:50:42;4.75;4.75;3.00
62599;PMS7003;48671;48.922;2.346;2024-02-15T13:53:09;5.00;4.25;3.75
62599;PMS7003;48671;48.922;2.346;2024-02-15T13:55:34;4.25;4.25;4.00
62599;PMS7003;48671;48.922;2.346;2024-02-15T13:58:01;9.75;4.75;3.25
62599;PMS7003;48671;48.922;2.346;2024-02-15T14:00:26;8.50;6.00;4.25
62599;PMS7003;48671;48.922;2.346;2024-02-15T14:02:56;5.00;4.00;3.00
62599;PMS7003;48671;48.922;2.346;2024-02-15T14:05:23;7.75;4.00;3.50
62599;PMS7003;48671;48.922;2.346;2024-02-15T14:07:51;5.75;5.25;4.00
62599;PMS7003;48671;48.922;2.346;2024-02-15T14:10:28;9.50;4.50;3.00
62599;PMS7003;48671;48.922;2.346;2024-02-15T14:12:55;7.00;5.00;3.75
62599;PMS7003;48671;48.922;2.346;2024-02-15T14:15:26;8.75;5.00;4.25
62599;PMS7003;48671;48.922;2.346;2024-02-15T14:17:52;6.25;6.25;4.50
62599;PMS7003;48671;48.922;2.346;2024-02-15T14:20:18;6.75;4.50;3.75
62599;PMS7003;48671;48.922;2.346;2024-02-15T14:22:44;12.00;8.00;5.50
62599;PMS7003;48671;48.922;2.346;2024-02-15T14:25:14;9.50;5.50;4.00
62599;PMS7003;48671;48.922;2.346;2024-02-15T14:27:40;7.25;5.50;4.25
62599;PMS7003;48671;48.922;2.346;2024-02-15T14:30:06;5.50;5.00;4.00
62599;PMS7003;48671;48.922;2.346;2024-02-15T14:32:50;4.50;4.00;3.00
62599;PMS7003;48671;48.922;2.346;2024-02-15T14:35:26;6.00;6.00;4.00
62599;PMS7003;48671;48.922;2.346;2024-02-15T14:37:53;6.00;5.75;4.00
62599;PMS7003;48671;48.922;2.346;2024-02-15T14:40:18;6.50;4.75;3.00
62599;PMS7003;48671;48.922;2.346;2024-02-15T14:42:43;3.25;3.25;2.50